Decoded Metar for OIZI (IRAN SHAHR in IRAN) (IATA:N/A) | Meteo·Mobile Aviation Weather
aviador You're here:

OIZI Decoded Metar

IRAN SHAHR in IRAN
Report Time2018-11-21 07:00:00
UTC Time2018-11-21 07:31:57
Flight Rules vfr VFR
Wind260° at 10 kt
W.Decomp.*RWY 17: 0.2 kt HW 10.0 kt RCW
W.Rank260° ranks 4
Current wind is above 260° avg. (6.3)
Visibility9999 m
Phenomena:N/A
Clouds:Few 040 Hf
Broken 100 Hf
Expected CloudBase > 6,400 ft AGL from Temp-Dew spread
Ceiling10,000 ft
Temp25°C (ISA +14)
Dew Point09°C (36% RH)
AAT21.2°C
QNH1018 hPa
Density Alt3,527 ft
Elevation1,939 ft
Report Wrong Elevation
Raw Report
METAR OIZI 210700Z 26010KT 9999 FEW040 BKN100 25/09 Q1018=

Extra information for OIZI:More info

Metar Taf Metar & Taf Last 4 Metars F.Rules Stats Wind Profile Meteogram Temp Stats Airport Information Weather charts Add Link Nearby VenuesMetar ALERT Operation Metar Decoded Social comments